createdAt,value
2018-04-07T00:00:15.693Z,7.30
2018-04-07T00:02:43.756Z,6.53
2018-04-07T00:05:11.112Z,9.87
2018-04-07T00:07:38.438Z,11.77
2018-04-07T00:10:06.525Z,10.37
2018-04-07T00:12:33.859Z,8.50
2018-04-07T00:15:01.268Z,11.13
2018-04-07T00:17:29.522Z,7.57
2018-04-07T00:19:57.024Z,9.03
2018-04-07T00:22:25.131Z,7.47
2018-04-07T00:24:52.557Z,11.83
2018-04-07T00:27:19.926Z,8.90
2018-04-07T00:29:48.202Z,6.27
2018-04-07T00:32:15.579Z,7.40
2018-04-07T00:34:43.221Z,8.00
2018-04-07T00:37:10.624Z,9.93
2018-04-07T00:39:38.856Z,10.47
2018-04-07T00:42:06.182Z,9.13
2018-04-07T00:44:34.299Z,10.03
2018-04-07T00:47:02.623Z,7.40
2018-04-07T00:49:30.173Z,10.57
2018-04-07T00:51:58.276Z,7.83
2018-04-07T00:54:25.638Z,8.40
2018-04-07T00:56:53.304Z,8.60
2018-04-07T00:59:20.676Z,11.97
2018-04-07T01:01:48.024Z,6.77
2018-04-07T01:04:16.298Z,7.93
2018-04-07T01:06:44.664Z,7.53
2018-04-07T01:09:12.064Z,7.10
2018-04-07T01:11:40.143Z,8.63
2018-04-07T01:14:08.227Z,7.33
2018-04-07T01:16:36.663Z,8.17
2018-04-07T01:19:04.024Z,7.43
2018-04-07T01:21:31.394Z,8.20
2018-04-07T01:23:59.501Z,8.90
2018-04-07T01:26:27.600Z,7.83
2018-04-07T01:28:54.920Z,9.33
2018-04-07T01:31:23.160Z,8.10
2018-04-07T01:33:50.492Z,9.10
2018-04-07T01:36:17.844Z,9.87
2018-04-07T01:38:45.189Z,10.23
2018-04-07T01:41:13.240Z,10.93
2018-04-07T01:43:41.398Z,9.53
2018-04-07T01:46:09.681Z,7.70
2018-04-07T01:48:37.927Z,9.33
2018-04-07T01:51:06.025Z,10.60
2018-04-07T01:53:33.412Z,8.50
2018-04-07T01:56:00.744Z,7.10
2018-04-07T01:58:28.092Z,8.03
2018-04-07T02:00:56.212Z,9.57
2018-04-07T02:03:24.495Z,10.93
2018-04-07T02:05:52.035Z,10.57
2018-04-07T02:08:19.350Z,7.33
2018-04-07T02:10:47.456Z,8.57
2018-04-07T02:13:15.951Z,10.07
2018-04-07T02:15:44.259Z,10.43
2018-04-07T02:18:11.612Z,10.70
2018-04-07T02:20:39.887Z,9.07
2018-04-07T02:23:08.130Z,10.73
2018-04-07T02:25:36.428Z,9.83
2018-04-07T02:28:04.040Z,15.23
2018-04-07T02:30:31.383Z,10.30
2018-04-07T02:32:58.856Z,11.47
2018-04-07T02:35:26.249Z,11.17
2018-04-07T02:37:54.383Z,11.00
2018-04-07T02:40:22.448Z,10.70
2018-04-07T02:42:50.548Z,9.70
2018-04-07T02:45:18.828Z,9.67
2018-04-07T02:47:46.205Z,8.67
2018-04-07T02:50:14.651Z,11.13
2018-04-07T02:52:43.142Z,9.93
2018-04-07T02:55:11.400Z,9.67
2018-04-07T02:57:38.780Z,10.03
2018-04-07T03:00:07.045Z,9.77
2018-04-07T03:02:35.071Z,8.90
2018-04-07T03:05:03.412Z,11.03
2018-04-07T03:07:30.747Z,9.53
2018-04-07T03:09:58.111Z,11.80
2018-04-07T03:12:26.368Z,11.53
2018-04-07T03:14:53.864Z,12.47
2018-04-07T03:17:22.119Z,11.67
2018-04-07T03:19:50.216Z,11.73
2018-04-07T03:22:17.539Z,11.53
2018-04-07T03:24:44.891Z,12.63
2018-04-07T03:27:12.201Z,11.33
2018-04-07T03:29:40.120Z,13.53
2018-04-07T03:32:08.208Z,12.33
2018-04-07T03:34:36.383Z,9.30
2018-04-07T03:37:04.676Z,10.30
2018-04-07T03:39:32.000Z,12.97
2018-04-07T03:42:00.451Z,11.80
2018-04-07T03:44:27.755Z,10.57
2018-04-07T03:46:55.851Z,13.40
2018-04-07T03:49:24.102Z,11.73
2018-04-07T03:51:51.619Z,13.20
2018-04-07T03:54:19.908Z,11.60
2018-04-07T03:56:47.232Z,12.87
2018-04-07T03:59:14.818Z,10.83
2018-04-07T04:01:42.140Z,10.57
2018-04-07T04:04:10.443Z,11.83
2018-04-07T04:06:38.906Z,9.80
2018-04-07T04:09:06.260Z,9.73
2018-04-07T04:11:33.580Z,8.03
2018-04-07T04:14:01.985Z,10.00
2018-04-07T04:16:29.335Z,9.57
2018-04-07T04:18:57.436Z,12.47
2018-04-07T04:21:25.727Z,12.23
2018-04-07T04:23:53.979Z,11.33
2018-04-07T04:26:21.360Z,14.70
2018-04-07T04:28:49.627Z,12.73
2018-04-07T04:31:17.728Z,13.07
2018-04-07T04:33:45.831Z,15.63
2018-04-07T04:36:13.147Z,13.33
2018-04-07T04:38:40.475Z,12.47
2018-04-07T04:41:08.540Z,10.87
2018-04-07T04:43:35.894Z,13.30
2018-04-07T04:46:03.999Z,15.87
2018-04-07T04:48:32.324Z,15.50
2018-04-07T04:50:59.734Z,13.97
2018-04-07T04:53:27.047Z,14.90
2018-04-07T04:55:55.889Z,14.50
2018-04-07T04:58:23.484Z,14.40
2018-04-07T05:00:51.746Z,13.37
2018-04-07T05:03:19.144Z,12.03
2018-04-07T05:05:47.256Z,14.20
2018-04-07T05:08:14.822Z,13.27
2018-04-07T05:10:42.143Z,13.80
2018-04-07T05:13:10.515Z,16.13
2018-04-07T05:15:38.954Z,17.87
2018-04-07T05:18:07.263Z,13.93
2018-04-07T05:20:34.772Z,14.43
2018-04-07T05:23:03.038Z,15.27
2018-04-07T05:25:30.383Z,13.13
2018-04-07T05:27:57.676Z,13.87
2018-04-07T05:30:25.056Z,13.53
2018-04-07T05:32:53.339Z,14.03
2018-04-07T05:35:21.396Z,13.80
2018-04-07T05:37:49.475Z,13.07
2018-04-07T05:40:17.563Z,14.83
2018-04-07T05:42:45.629Z,15.03
2018-04-07T05:45:13.745Z,15.37
2018-04-07T05:47:41.232Z,16.47
2018-04-07T05:50:09.527Z,14.80
2018-04-07T05:52:37.622Z,17.33
2018-04-07T05:55:06.086Z,16.37
2018-04-07T05:57:34.159Z,13.40
2018-04-07T06:00:02.381Z,14.97
2018-04-07T06:02:29.720Z,14.20
2018-04-07T06:04:57.303Z,14.10
2018-04-07T06:07:24.662Z,13.50
2018-04-07T06:09:52.933Z,14.40
2018-04-07T06:12:20.280Z,15.83
2018-04-07T06:14:48.395Z,15.20
2018-04-07T06:17:15.770Z,19.10
2018-04-07T06:19:43.872Z,16.20
2018-04-07T06:22:11.189Z,15.30
2018-04-07T06:24:38.775Z,16.57
2018-04-07T06:27:06.139Z,15.67
2018-04-07T06:29:33.476Z,15.40
2018-04-07T06:32:00.907Z,15.23
2018-04-07T06:34:29.005Z,15.97
2018-04-07T06:36:56.603Z,14.27
2018-04-07T06:39:23.960Z,12.90
2018-04-07T06:41:51.497Z,13.83
2018-04-07T06:44:18.874Z,14.50
2018-04-07T06:46:47.079Z,15.87
2018-04-07T06:49:14.447Z,18.03
2018-04-07T06:51:42.898Z,16.93
2018-04-07T06:54:11.251Z,14.63
2018-04-07T06:56:39.539Z,16.23
2018-04-07T06:59:06.859Z,15.57
2018-04-07T07:01:35.109Z,15.73
2018-04-07T07:04:02.466Z,16.83
2018-04-07T07:06:30.762Z,15.43
2018-04-07T07:08:58.173Z,16.13
2018-04-07T07:11:26.426Z,20.50
2018-04-07T07:13:54.519Z,16.37
2018-04-07T07:16:21.937Z,16.30
2018-04-07T07:18:50.212Z,18.23
2018-04-07T07:21:17.967Z,15.07
2018-04-07T07:23:45.409Z,17.13
2018-04-07T07:26:12.943Z,16.40
2018-04-07T07:28:40.603Z,17.47
2018-04-07T07:31:08.251Z,17.13
2018-04-07T07:33:36.339Z,15.03
2018-04-07T07:36:03.710Z,18.37
2018-04-07T07:38:31.973Z,14.83
2018-04-07T07:40:59.365Z,15.33
2018-04-07T07:43:26.679Z,15.70
2018-04-07T07:45:54.034Z,14.90
2018-04-07T07:48:21.323Z,15.37
2018-04-07T07:50:48.710Z,13.93
2018-04-07T07:53:17.343Z,16.47
2018-04-07T07:55:44.808Z,15.70
2018-04-07T07:58:13.244Z,18.23
2018-04-07T08:00:41.563Z,16.83
2018-04-07T08:03:09.696Z,15.63
2018-04-07T08:05:37.185Z,17.50
2018-04-07T08:08:05.315Z,15.37
2018-04-07T08:10:33.651Z,16.63
2018-04-07T08:13:01.162Z,17.87
2018-04-07T08:15:29.493Z,16.63
2018-04-07T08:17:57.840Z,20.23
2018-04-07T08:20:25.309Z,17.57
2018-04-07T08:22:52.708Z,16.30
2018-04-07T08:25:20.072Z,15.53
2018-04-07T08:27:48.168Z,13.87
2018-04-07T08:30:16.267Z,15.80
2018-04-07T08:32:43.670Z,16.53
2018-04-07T08:35:11.783Z,14.80
2018-04-07T08:37:39.176Z,15.63
2018-04-07T08:40:06.486Z,17.57
2018-04-07T08:42:33.839Z,18.17
2018-04-07T08:45:01.947Z,15.27
2018-04-07T08:47:30.251Z,15.37
2018-04-07T08:49:58.453Z,16.57
2018-04-07T08:52:26.534Z,13.07
2018-04-07T08:54:54.682Z,18.03
2018-04-07T08:57:22.066Z,15.83
2018-04-07T08:59:50.214Z,19.50
2018-04-07T09:02:18.616Z,14.07
2018-04-07T09:04:46.001Z,14.10
2018-04-07T09:07:13.400Z,15.33
2018-04-07T09:09:40.878Z,12.43
2018-04-07T09:12:09.129Z,13.13
2018-04-07T09:14:36.507Z,12.93
2018-04-07T09:17:04.616Z,12.90
2018-04-07T09:19:32.994Z,14.47
2018-04-07T09:22:00.337Z,12.17
2018-04-07T09:24:27.679Z,13.80
2018-04-07T09:26:55.808Z,10.80
2018-04-07T09:29:23.225Z,13.67
2018-04-07T09:31:50.618Z,11.90
2018-04-07T09:34:18.051Z,13.33
2018-04-07T09:36:45.424Z,14.03
2018-04-07T09:39:12.829Z,13.03
2018-04-07T09:41:40.895Z,11.03
2018-04-07T09:44:08.238Z,10.73
2018-04-07T09:46:35.600Z,14.10
2018-04-07T09:49:03.692Z,11.53
2018-04-07T09:51:31.943Z,12.13
2018-04-07T09:54:00.133Z,12.33
2018-04-07T09:56:27.495Z,14.53
2018-04-07T09:58:55.763Z,13.20
2018-04-07T10:01:28.295Z,9.43
2018-04-07T10:03:55.692Z,16.90
2018-04-07T10:06:24.086Z,12.77
2018-04-07T10:08:52.396Z,10.73
2018-04-07T10:11:20.827Z,8.47
2018-04-07T10:13:48.720Z,14.73
2018-04-07T10:16:17.123Z,15.17
2018-04-07T10:18:45.260Z,11.57
2018-04-07T10:21:12.636Z,13.83
2018-04-07T10:23:41.256Z,10.97
2018-04-07T10:26:09.548Z,12.13
2018-04-07T10:28:37.045Z,9.90
2018-04-07T10:31:04.568Z,6.20
2018-04-07T10:33:32.764Z,11.90
2018-04-07T10:36:00.173Z,16.63
2018-04-07T10:38:28.298Z,10.97
2018-04-07T10:40:55.668Z,14.53
2018-04-07T10:43:23.982Z,16.07
2018-04-07T10:45:52.045Z,15.63
2018-04-07T10:48:20.188Z,11.60
2018-04-07T10:50:47.695Z,14.07
2018-04-07T10:53:16.093Z,10.17
2018-04-07T10:55:44.204Z,9.33
2018-04-07T10:58:12.337Z,11.77
2018-04-07T11:00:39.665Z,7.43
2018-04-07T11:03:07.000Z,9.13
2018-04-07T11:05:35.311Z,14.20
2018-04-07T11:08:03.576Z,11.93
2018-04-07T11:10:31.697Z,10.60
2018-04-07T11:12:59.814Z,10.70
2018-04-07T11:15:27.337Z,12.03
2018-04-07T11:17:55.516Z,9.57
2018-04-07T11:20:23.621Z,13.23
2018-04-07T11:22:51.880Z,10.57
2018-04-07T11:25:19.283Z,10.47
2018-04-07T11:27:46.623Z,10.40
2018-04-07T11:30:14.744Z,12.67
2018-04-07T11:32:43.205Z,10.03
2018-04-07T11:35:10.968Z,10.70
2018-04-07T11:37:38.886Z,12.40
2018-04-07T11:40:11.176Z,7.03
2018-04-07T11:42:40.757Z,9.77
2018-04-07T11:45:08.499Z,10.10
2018-04-07T11:47:35.909Z,10.90
2018-04-07T11:50:04.282Z,10.93
2018-04-07T11:52:31.793Z,12.43
2018-04-07T11:54:59.177Z,18.33
2018-04-07T11:57:26.562Z,12.23
2018-04-07T11:59:53.949Z,10.77
2018-04-07T12:02:22.105Z,10.63
2018-04-07T12:04:50.249Z,10.83
2018-04-07T12:07:17.648Z,6.60
2018-04-07T12:09:45.725Z,15.37
2018-04-07T12:12:13.133Z,8.47
2018-04-07T12:14:42.621Z,10.03
2018-04-07T12:17:10.038Z,10.57
2018-04-07T12:19:38.117Z,12.20
2018-04-07T12:22:05.505Z,10.27
2018-04-07T12:24:33.412Z,11.10
2018-04-07T12:27:00.881Z,12.87
2018-04-07T12:29:29.005Z,11.27
2018-04-07T12:31:56.503Z,10.80
2018-04-07T12:34:24.628Z,11.87
2018-04-07T12:36:53.017Z,8.80
2018-04-07T12:39:20.416Z,8.87
2018-04-07T12:41:48.608Z,9.70
2018-04-07T12:44:15.989Z,11.13
2018-04-07T12:46:43.456Z,9.20
2018-04-07T12:49:10.816Z,5.93
2018-04-07T12:51:38.199Z,12.13
2018-04-07T12:54:05.575Z,8.77
2018-04-07T12:56:33.840Z,7.20
2018-04-07T12:59:01.970Z,5.83
2018-04-07T13:01:29.379Z,9.93
2018-04-07T13:03:57.576Z,9.80
2018-04-07T13:06:31.794Z,11.97
2018-04-07T13:08:59.279Z,9.83
2018-04-07T13:11:26.679Z,13.73
2018-04-07T13:13:54.091Z,10.93
2018-04-07T13:16:21.516Z,9.83
2018-04-07T13:18:50.805Z,9.37
2018-04-07T13:21:18.308Z,9.17
2018-04-07T13:23:45.676Z,10.73
2018-04-07T13:26:13.065Z,9.43
2018-04-07T13:28:40.487Z,11.30
2018-04-07T13:31:07.915Z,9.70
2018-04-07T13:33:38.617Z,9.90
2018-04-07T13:36:04.892Z,8.37
2018-04-07T13:38:32.318Z,9.17
2018-04-07T13:40:59.691Z,7.37
2018-04-07T13:43:27.172Z,4.70
2018-04-07T13:45:54.528Z,8.60
2018-04-07T13:48:22.663Z,6.30
2018-04-07T13:50:50.164Z,7.30
2018-04-07T13:53:17.915Z,8.93
2018-04-07T13:55:45.434Z,7.60
2018-04-07T13:58:12.951Z,12.17
2018-04-07T14:00:40.329Z,4.50
2018-04-07T14:03:08.448Z,11.90
2018-04-07T14:05:36.756Z,9.20
2018-04-07T14:08:04.947Z,4.40
2018-04-07T14:10:32.328Z,9.20
2018-04-07T14:13:00.744Z,9.67
2018-04-07T14:15:31.186Z,7.87
2018-04-07T14:17:58.630Z,9.13
2018-04-07T14:20:25.984Z,9.70
2018-04-07T14:22:58.050Z,9.00
2018-04-07T14:25:27.373Z,9.03
2018-04-07T14:27:57.357Z,9.73
2018-04-07T14:30:28.589Z,9.67
2018-04-07T14:32:55.920Z,6.70
2018-04-07T14:35:26.167Z,8.43
2018-04-07T14:37:55.167Z,10.87
2018-04-07T14:40:23.532Z,10.43
2018-04-07T14:42:51.983Z,8.87
2018-04-07T14:45:20.316Z,9.57
2018-04-07T14:47:47.668Z,8.90
2018-04-07T14:50:15.053Z,9.17
2018-04-07T14:52:42.456Z,9.67
2018-04-07T14:55:09.862Z,8.37
2018-04-07T14:57:38.012Z,10.63
2018-04-07T15:00:06.172Z,11.27
2018-04-07T15:02:33.588Z,8.80
2018-04-07T15:05:01.036Z,10.50
2018-04-07T15:07:28.413Z,9.10
2018-04-07T15:09:57.996Z,9.80
2018-04-07T15:12:27.872Z,9.13
2018-04-07T15:14:56.008Z,10.93
2018-04-07T15:17:23.500Z,5.60
2018-04-07T15:19:51.589Z,6.60
2018-04-07T15:22:20.588Z,6.60
2018-04-07T15:24:49.034Z,8.23
2018-04-07T15:27:18.031Z,7.77
2018-04-07T15:29:45.461Z,9.80
2018-04-07T15:32:12.855Z,8.00
2018-04-07T15:34:41.323Z,8.03
2018-04-07T15:37:08.704Z,6.40
2018-04-07T15:39:36.111Z,5.83
2018-04-07T15:42:03.480Z,7.37
2018-04-07T15:44:30.907Z,5.47
2018-04-07T15:46:58.270Z,8.17
2018-04-07T15:49:25.671Z,9.17
2018-04-07T15:51:53.080Z,9.90
2018-04-07T15:54:20.491Z,7.40
2018-04-07T15:56:47.906Z,5.77
2018-04-07T15:59:15.332Z,6.73
2018-04-07T16:01:42.881Z,9.47
2018-04-07T16:04:10.215Z,8.97
2018-04-07T16:06:39.371Z,6.90
2018-04-07T16:09:06.931Z,5.37
2018-04-07T16:11:37.025Z,7.90
2018-04-07T16:14:05.107Z,8.33
2018-04-07T16:16:32.489Z,7.33
2018-04-07T16:18:59.875Z,6.97
2018-04-07T16:21:27.307Z,9.33
2018-04-07T16:23:55.407Z,9.13
2018-04-07T16:26:22.786Z,9.57
2018-04-07T16:28:50.312Z,9.70
2018-04-07T16:31:17.689Z,7.53
2018-04-07T16:33:45.128Z,8.13
2018-04-07T16:36:12.519Z,12.83
2018-04-07T16:38:41.610Z,8.70
2018-04-07T16:41:16.591Z,7.80
2018-04-07T16:43:44.795Z,9.20
2018-04-07T16:46:12.125Z,10.53
2018-04-07T16:48:39.655Z,10.90
2018-04-07T16:51:07.048Z,9.73
2018-04-07T16:53:35.308Z,10.50
2018-04-07T16:56:02.745Z,7.77
2018-04-07T16:58:31.072Z,8.07
2018-04-07T17:00:58.537Z,10.00
2018-04-07T17:03:25.865Z,11.90
2018-04-07T17:05:53.977Z,10.13
2018-04-07T17:08:21.407Z,6.40
2018-04-07T17:10:48.948Z,10.03
2018-04-07T17:13:16.377Z,7.30
2018-04-07T17:15:43.803Z,7.87
2018-04-07T17:18:11.188Z,6.90
2018-04-07T17:20:40.493Z,8.03
2018-04-07T17:23:07.925Z,8.57
2018-04-07T17:25:37.102Z,7.87
2018-04-07T17:28:05.417Z,8.80
2018-04-07T17:30:33.585Z,12.13
2018-04-07T17:33:00.989Z,7.57
2018-04-07T17:35:31.025Z,7.80
2018-04-07T17:37:58.408Z,10.00
2018-04-07T17:40:29.523Z,6.30
2018-04-07T17:42:56.900Z,7.37
2018-04-07T17:45:27.065Z,10.53
2018-04-07T17:47:56.454Z,9.13
2018-04-07T17:50:30.868Z,8.27
2018-04-07T17:53:02.329Z,9.00
2018-04-07T17:55:29.761Z,9.33
2018-04-07T17:57:59.188Z,9.30
2018-04-07T18:00:28.344Z,8.50
2018-04-07T18:02:55.883Z,8.53
2018-04-07T18:05:23.247Z,12.80
2018-04-07T18:07:50.724Z,9.17
2018-04-07T18:10:19.043Z,8.73
2018-04-07T18:12:49.003Z,7.47
2018-04-07T18:15:17.220Z,11.17
2018-04-07T18:17:44.860Z,9.97
2018-04-07T18:20:12.968Z,11.13
2018-04-07T18:22:47.076Z,10.47
2018-04-07T18:25:18.515Z,11.67
2018-04-07T18:27:46.780Z,14.20
2018-04-07T18:30:15.044Z,11.17
2018-04-07T18:32:43.451Z,11.17
2018-04-07T18:35:11.610Z,12.07
2018-04-07T18:37:39.891Z,10.97
2018-04-07T18:40:09.044Z,11.87
2018-04-07T18:42:39.469Z,11.17
2018-04-07T18:45:07.987Z,12.03
2018-04-07T18:47:36.404Z,12.23
2018-04-07T18:50:05.341Z,10.77
2018-04-07T18:52:35.596Z,11.23
2018-04-07T18:55:05.680Z,11.20
2018-04-07T18:57:34.036Z,11.53
2018-04-07T19:00:04.108Z,13.77
2018-04-07T19:02:32.328Z,14.53
2018-04-07T19:05:00.565Z,9.97
2018-04-07T19:07:30.584Z,12.17
2018-04-07T19:09:58.820Z,11.47
2018-04-07T19:12:27.130Z,12.97
2018-04-07T19:14:55.301Z,10.87
2018-04-07T19:17:26.067Z,11.10
2018-04-07T19:19:56.396Z,11.17
2018-04-07T19:22:23.775Z,11.43
2018-04-07T19:24:51.207Z,12.33
2018-04-07T19:27:18.615Z,13.40
2018-04-07T19:29:45.992Z,15.23
2018-04-07T19:32:13.368Z,14.30
2018-04-07T19:34:41.661Z,13.03
2018-04-07T19:37:10.799Z,13.40
2018-04-07T19:39:38.358Z,12.47
2018-04-07T19:42:07.305Z,14.37
2018-04-07T19:44:35.577Z,15.67
2018-04-07T19:47:03.874Z,12.33
2018-04-07T19:49:31.302Z,12.50
2018-04-07T19:51:58.753Z,11.83
2018-04-07T19:54:28.879Z,12.97
2018-04-07T19:56:57.981Z,13.03
2018-04-07T19:59:26.611Z,12.73
2018-04-07T20:01:54.873Z,14.33
2018-04-07T20:04:22.233Z,15.10
2018-04-07T20:06:49.645Z,13.10
2018-04-07T20:09:18.109Z,21.50
2018-04-07T20:11:45.533Z,13.63
2018-04-07T20:14:12.971Z,15.40
2018-04-07T20:16:40.342Z,16.43
2018-04-07T20:19:07.868Z,14.60
2018-04-07T20:21:35.259Z,13.83
2018-04-07T20:24:03.355Z,14.17
2018-04-07T20:26:30.765Z,13.13
2018-04-07T20:28:58.241Z,13.80
2018-04-07T20:31:27.614Z,13.57
2018-04-07T20:33:55.085Z,12.93
2018-04-07T20:36:23.237Z,15.80
2018-04-07T20:38:51.727Z,14.57
2018-04-07T20:41:19.111Z,12.60
2018-04-07T20:43:46.536Z,14.93
2018-04-07T20:46:13.919Z,14.77
2018-04-07T20:48:41.297Z,16.90
2018-04-07T20:51:10.456Z,12.43
2018-04-07T20:53:37.833Z,15.03
2018-04-07T20:56:13.316Z,16.20
2018-04-07T20:58:41.507Z,13.60
2018-04-07T21:01:10.923Z,16.13
2018-04-07T21:03:38.285Z,15.07
2018-04-07T21:06:07.572Z,12.80
2018-04-07T21:08:36.896Z,15.50
2018-04-07T21:11:05.067Z,12.97
2018-04-07T21:13:34.438Z,14.33
2018-04-07T21:16:01.856Z,15.73
2018-04-07T21:18:32.973Z,14.93
2018-04-07T21:21:02.311Z,14.27
2018-04-07T21:23:29.713Z,16.03
2018-04-07T21:25:57.268Z,14.33
2018-04-07T21:28:24.660Z,15.17
2018-04-07T21:30:53.704Z,13.03
2018-04-07T21:33:21.972Z,14.10
2018-04-07T21:35:49.364Z,17.20
2018-04-07T21:38:17.796Z,14.43
2018-04-07T21:40:45.185Z,14.70
2018-04-07T21:43:13.524Z,16.63
2018-04-07T21:45:40.888Z,15.67
2018-04-07T21:48:08.299Z,17.60
2018-04-07T21:50:36.428Z,13.77
2018-04-07T21:53:04.875Z,12.30
2018-04-07T21:55:32.371Z,12.57
2018-04-07T21:58:00.686Z,16.57
2018-04-07T22:00:28.804Z,12.97
2018-04-07T22:02:57.100Z,14.50
2018-04-07T22:05:24.448Z,12.57
2018-04-07T22:07:52.852Z,13.30
2018-04-07T22:10:20.299Z,13.37
2018-04-07T22:12:48.530Z,11.47
2018-04-07T22:15:16.721Z,13.17
2018-04-07T22:17:44.168Z,12.60
2018-04-07T22:20:11.515Z,13.03
2018-04-07T22:22:39.830Z,12.87
2018-04-07T22:25:07.286Z,10.90
2018-04-07T22:27:34.684Z,12.57
2018-04-07T22:30:03.070Z,12.57
2018-04-07T22:32:30.544Z,14.70
2018-04-07T22:34:57.888Z,14.37
2018-04-07T22:37:26.029Z,18.00
2018-04-07T22:39:54.549Z,13.63
2018-04-07T22:42:21.939Z,13.07
2018-04-07T22:44:49.477Z,14.50
2018-04-07T22:47:17.784Z,12.27
2018-04-07T22:49:46.069Z,12.63
2018-04-07T22:52:13.442Z,12.57
2018-04-07T22:54:41.493Z,14.37
2018-04-07T22:57:08.918Z,15.13
2018-04-07T22:59:36.260Z,12.07
2018-04-07T23:02:04.384Z,9.17
2018-04-07T23:04:32.900Z,11.43
2018-04-07T23:07:00.253Z,13.10
2018-04-07T23:09:28.488Z,11.40
2018-04-07T23:11:56.600Z,13.20
2018-04-07T23:14:24.000Z,12.53
2018-04-07T23:16:52.276Z,12.73
2018-04-07T23:19:19.660Z,11.17
2018-04-07T23:21:47.169Z,10.23
2018-04-07T23:24:15.411Z,9.63
2018-04-07T23:26:43.493Z,11.83
2018-04-07T23:29:10.863Z,9.67
2018-04-07T23:31:38.993Z,13.77
2018-04-07T23:34:06.424Z,12.60
2018-04-07T23:36:34.547Z,15.93
2018-04-07T23:39:02.659Z,15.63
2018-04-07T23:41:30.040Z,13.20
2018-04-07T23:43:58.118Z,14.33
2018-04-07T23:46:26.241Z,12.43
2018-04-07T23:48:53.587Z,10.50
2018-04-07T23:51:21.065Z,13.57
2018-04-07T23:53:48.420Z,13.47
2018-04-07T23:56:15.763Z,14.63
2018-04-07T23:58:43.099Z,13.80
